createdAt,value
2019-05-23T00:01:33.545Z,96559.48
2019-05-23T00:04:07.486Z,96559.22
2019-05-23T00:06:37.522Z,96544.64
2019-05-23T00:09:06.849Z,96557.53
2019-05-23T00:11:40.663Z,96555.20
2019-05-23T00:14:19.661Z,96556.14
2019-05-23T00:16:48.811Z,96552.39
2019-05-23T00:19:18.481Z,96554.86
2019-05-23T00:21:47.051Z,96548.21
2019-05-23T00:24:15.661Z,96547.69
2019-05-23T00:26:44.902Z,96538.41
2019-05-23T00:29:14.928Z,96532.14
2019-05-23T00:31:45.395Z,96538.19
2019-05-23T00:34:14.699Z,96536.54
2019-05-23T00:36:44.815Z,96537.14
2019-05-23T00:39:15.062Z,96531.02
2019-05-23T00:41:43.567Z,96534.61
2019-05-23T00:44:13.258Z,96537.73
2019-05-23T00:46:41.894Z,96539.08
2019-05-23T00:49:12.906Z,96542.68
2019-05-23T00:51:41.475Z,96539.08
2019-05-23T00:54:11.164Z,96537.12
2019-05-23T00:56:39.877Z,96537.83
2019-05-23T00:59:24.465Z,96534.92
2019-05-23T01:01:41.044Z,96537.95
2019-05-23T01:04:10.936Z,96531.14
2019-05-23T01:06:40.229Z,96538.86
2019-05-23T01:09:08.914Z,96539.16
2019-05-23T01:11:37.441Z,96535.19
2019-05-23T01:14:06.287Z,96531.58
2019-05-23T01:16:35.605Z,96530.94
2019-05-23T01:19:05.075Z,96515.97
2019-05-23T01:21:51.504Z,96529.60
2019-05-23T01:24:37.440Z,96534.78
2019-05-23T01:27:07.474Z,96537.05
2019-05-23T01:29:40.950Z,96539.66
2019-05-23T01:32:18.070Z,96537.19
2019-05-23T01:34:48.443Z,96532.53
2019-05-23T01:37:19.358Z,96533.66
2019-05-23T01:39:48.848Z,96537.05
2019-05-23T01:42:18.380Z,96526.38
2019-05-23T01:44:47.483Z,96532.53
2019-05-23T01:47:16.890Z,96537.10
2019-05-23T01:49:45.393Z,96531.17
2019-05-23T01:52:14.195Z,96533.66
2019-05-23T01:54:43.233Z,96533.52
2019-05-23T01:57:12.083Z,96534.88
2019-05-23T01:59:40.908Z,96540.27
2019-05-23T02:02:11.375Z,96534.88
2019-05-23T02:04:40.630Z,96537.86
2019-05-23T02:07:09.872Z,96537.04
2019-05-23T02:09:38.647Z,96534.25
2019-05-23T02:12:09.452Z,96536.12
2019-05-23T02:14:38.892Z,96538.38
2019-05-23T02:17:09.047Z,96543.63
2019-05-23T02:19:38.278Z,96537.47
2019-05-23T02:22:08.319Z,96538.38
2019-05-23T02:24:38.135Z,96544.08
2019-05-23T02:27:08.507Z,96544.69
2019-05-23T02:29:37.483Z,96542.13
2019-05-23T02:32:07.134Z,96547.17
2019-05-23T02:34:36.296Z,96547.38
2019-05-23T02:37:06.565Z,96549.81
2019-05-23T02:39:53.318Z,96550.64
2019-05-23T02:42:41.390Z,96549.11
2019-05-23T02:45:13.104Z,96546.86
2019-05-23T02:47:46.238Z,96553.05
2019-05-23T02:50:23.628Z,96547.78
2019-05-23T02:52:54.329Z,96546.83
2019-05-23T02:55:29.614Z,96544.96
2019-05-23T02:58:01.165Z,96544.56
2019-05-23T03:00:52.562Z,96544.02
2019-05-23T03:03:10.224Z,96547.08
2019-05-23T03:05:41.187Z,96544.13
2019-05-23T03:08:12.729Z,96542.02
2019-05-23T03:10:57.759Z,96546.55
2019-05-23T03:13:29.134Z,96542.77
2019-05-23T03:15:58.686Z,96546.66
2019-05-23T03:18:34.039Z,96536.82
2019-05-23T03:21:01.798Z,96540.61
2019-05-23T03:23:32.806Z,96532.16
2019-05-23T03:26:19.880Z,96542.62
2019-05-23T03:28:48.671Z,96544.17
2019-05-23T03:31:29.976Z,96542.10
2019-05-23T03:33:52.120Z,96538.84
2019-05-23T03:36:21.817Z,96542.27
2019-05-23T03:38:51.364Z,96542.99
2019-05-23T03:41:21.696Z,96549.73
2019-05-23T03:43:50.726Z,96543.30
2019-05-23T03:46:23.804Z,96546.97
2019-05-23T03:48:54.317Z,96554.59
2019-05-23T03:51:23.764Z,96557.60
2019-05-23T03:53:54.056Z,96556.66
2019-05-23T03:56:23.082Z,96554.39
2019-05-23T03:58:54.225Z,96550.34
2019-05-23T04:01:24.369Z,96549.20
2019-05-23T04:03:54.524Z,96550.03
2019-05-23T04:06:23.345Z,96553.23
2019-05-23T04:08:52.751Z,96555.47
2019-05-23T04:11:21.496Z,96557.08
2019-05-23T04:13:50.989Z,96547.80
2019-05-23T04:16:20.017Z,96548.83
2019-05-23T04:18:48.521Z,96553.52
2019-05-23T04:21:18.928Z,96552.99
2019-05-23T04:23:47.536Z,96549.88
2019-05-23T04:26:16.273Z,96552.38
2019-05-23T04:31:29.109Z,96553.92
2019-05-23T04:33:57.678Z,96552.78
2019-05-23T04:36:27.820Z,96558.05
2019-05-23T04:38:56.594Z,96557.08
2019-05-23T04:41:25.267Z,96555.57
2019-05-23T04:43:53.865Z,96560.81
2019-05-23T04:46:22.709Z,96556.87
2019-05-23T04:48:51.997Z,96552.09
2019-05-23T04:51:21.482Z,96546.61
2019-05-23T04:53:50.234Z,96550.30
2019-05-23T04:56:26.140Z,96554.39
2019-05-23T04:58:55.038Z,96553.50
2019-05-23T05:01:23.782Z,96554.29
2019-05-23T05:03:52.815Z,96556.92
2019-05-23T05:06:21.353Z,96554.02
2019-05-23T05:08:50.692Z,96551.53
2019-05-23T05:11:20.094Z,96554.86
2019-05-23T05:13:48.573Z,96546.71
2019-05-23T05:16:17.302Z,96549.47
2019-05-23T05:18:46.515Z,96548.95
2019-05-23T05:21:15.487Z,96542.31
2019-05-23T05:23:44.124Z,96544.80
2019-05-23T05:26:15.663Z,96546.66
2019-05-23T05:28:44.918Z,96543.45
2019-05-23T05:31:13.419Z,96548.27
2019-05-23T05:33:42.054Z,96548.36
2019-05-23T05:36:10.632Z,96549.30
2019-05-23T05:38:39.141Z,96551.53
2019-05-23T05:41:07.776Z,96549.26
2019-05-23T05:43:36.337Z,96543.97
2019-05-23T05:46:05.396Z,96537.91
2019-05-23T05:48:34.243Z,96531.06
2019-05-23T05:51:03.517Z,96526.70
2019-05-23T05:53:32.553Z,96524.32
2019-05-23T05:56:01.136Z,96534.27
2019-05-23T05:58:29.844Z,96526.70
2019-05-23T06:01:00.067Z,96525.48
2019-05-23T06:03:28.587Z,96528.41
2019-05-23T06:05:58.787Z,96526.66
2019-05-23T06:08:29.030Z,96526.14
2019-05-23T06:10:58.368Z,96525.48
2019-05-23T06:13:27.006Z,96518.72
2019-05-23T06:15:55.661Z,96523.02
2019-05-23T06:18:24.479Z,96529.39
2019-05-23T06:20:54.364Z,96522.34
2019-05-23T06:23:23.150Z,96525.04
2019-05-23T06:25:51.757Z,96523.08
2019-05-23T06:28:21.456Z,96527.52
2019-05-23T06:30:51.215Z,96526.79
2019-05-23T06:33:23.851Z,96521.92
2019-05-23T06:35:52.208Z,96518.80
2019-05-23T06:38:21.390Z,96519.77
2019-05-23T06:40:50.250Z,96520.14
2019-05-23T06:43:18.967Z,96515.98
2019-05-23T06:45:48.168Z,96513.68
2019-05-23T06:48:17.046Z,96509.17
2019-05-23T06:50:45.694Z,96504.82
2019-05-23T06:53:14.414Z,96502.13
2019-05-23T06:55:42.929Z,96497.34
2019-05-23T06:58:11.947Z,96502.00
2019-05-23T07:00:41.545Z,96501.70
2019-05-23T07:03:10.136Z,96503.05
2019-05-23T07:05:40.874Z,96495.48
2019-05-23T07:08:09.482Z,96495.05
2019-05-23T07:10:39.731Z,96496.75
2019-05-23T07:13:08.367Z,96491.56
2019-05-23T07:15:37.580Z,96491.98
2019-05-23T07:18:06.981Z,96483.67
2019-05-23T07:20:35.584Z,96483.55
2019-05-23T07:23:05.139Z,96485.86
2019-05-23T07:25:33.601Z,96479.57
2019-05-23T07:28:02.258Z,96481.33
2019-05-23T07:30:37.876Z,96473.13
2019-05-23T07:33:08.446Z,96465.91
2019-05-23T07:35:37.815Z,96462.73
2019-05-23T07:38:06.710Z,96457.86
2019-05-23T07:40:35.531Z,96451.77
2019-05-23T07:43:40.873Z,96449.69
2019-05-23T07:46:15.400Z,96451.41
2019-05-23T07:48:44.044Z,96447.27
2019-05-23T07:51:12.734Z,96446.74
2019-05-23T07:53:44.226Z,96447.52
2019-05-23T07:56:15.311Z,96439.88
2019-05-23T07:58:44.231Z,96442.77
2019-05-23T08:01:14.434Z,96444.34
2019-05-23T08:03:43.864Z,96437.97
2019-05-23T08:06:12.801Z,96438.80
2019-05-23T08:08:41.392Z,96437.94
2019-05-23T08:11:10.013Z,96438.33
2019-05-23T08:13:39.164Z,96435.09
2019-05-23T08:16:07.774Z,96432.78
2019-05-23T08:18:36.429Z,96431.24
2019-05-23T08:21:05.097Z,96429.97
2019-05-23T08:23:34.106Z,96423.70
2019-05-23T08:26:03.067Z,96422.67
2019-05-23T08:28:32.559Z,96417.55
2019-05-23T08:31:01.467Z,96420.25
2019-05-23T08:33:30.427Z,96423.58
2019-05-23T08:35:58.967Z,96412.17
2019-05-23T08:38:29.323Z,96410.77
2019-05-23T08:40:58.066Z,96411.34
2019-05-23T08:43:26.604Z,96411.10
2019-05-23T08:45:55.907Z,96412.21
2019-05-23T08:48:24.901Z,96419.03
2019-05-23T08:50:53.545Z,96414.72
2019-05-23T08:53:22.437Z,96414.17
2019-05-23T08:55:51.751Z,96417.70
2019-05-23T08:58:20.613Z,96413.61
2019-05-23T09:00:50.080Z,96411.95
2019-05-23T09:03:19.868Z,96413.59
2019-05-23T09:05:50.297Z,96408.93
2019-05-23T09:08:19.961Z,96406.73
2019-05-23T09:10:49.169Z,96406.41
2019-05-23T09:13:18.339Z,96402.87
2019-05-23T09:15:47.101Z,96400.45
2019-05-23T09:18:15.816Z,96399.03
2019-05-23T09:20:44.559Z,96400.43
2019-05-23T09:23:13.329Z,96396.37
2019-05-23T09:25:44.755Z,96399.62
2019-05-23T09:31:18.738Z,96391.41
2019-05-23T09:33:48.996Z,96393.81
2019-05-23T09:36:17.594Z,96385.27
2019-05-23T09:38:46.082Z,96386.09
2019-05-23T09:41:14.602Z,96383.35
2019-05-23T09:43:43.145Z,96385.00
2019-05-23T09:49:11.787Z,96382.72
2019-05-23T09:51:40.464Z,96386.23
2019-05-23T09:57:07.549Z,96371.52
2019-05-23T09:59:36.258Z,96379.13
2019-05-23T10:02:05.676Z,96383.00
2019-05-23T10:04:34.679Z,96379.45
2019-05-23T10:07:03.801Z,96379.30
2019-05-23T10:09:36.044Z,96379.87
2019-05-23T10:12:04.724Z,96379.34
2019-05-23T10:14:40.235Z,96377.92
2019-05-23T10:17:09.126Z,96374.30
2019-05-23T10:19:38.208Z,96377.97
2019-05-23T10:22:07.283Z,96374.28
2019-05-23T10:24:35.920Z,96373.80
2019-05-23T10:27:07.567Z,96367.39
2019-05-23T10:29:36.236Z,96372.98
2019-05-23T10:32:06.516Z,96365.03
2019-05-23T10:34:35.482Z,96358.68
2019-05-23T10:37:05.795Z,96363.02
2019-05-23T10:39:35.430Z,96361.27
2019-05-23T10:42:05.628Z,96353.78
2019-05-23T10:44:34.411Z,96354.72
2019-05-23T10:47:02.919Z,96350.07
2019-05-23T10:49:31.449Z,96349.69
2019-05-23T10:52:00.004Z,96338.33
2019-05-23T10:54:30.024Z,96337.89
2019-05-23T10:56:58.530Z,96338.72
2019-05-23T10:59:27.096Z,96323.48
2019-05-23T11:01:55.783Z,96326.67
2019-05-23T11:04:24.284Z,96331.92
2019-05-23T11:06:52.956Z,96329.52
2019-05-23T11:09:36.778Z,96324.30
2019-05-23T11:11:54.982Z,96324.95
2019-05-23T11:14:23.405Z,96318.25
2019-05-23T11:16:52.479Z,96318.54
2019-05-23T11:19:21.117Z,96313.23
2019-05-23T11:21:53.750Z,96313.61
2019-05-23T11:24:27.511Z,96303.72
2019-05-23T11:26:56.212Z,96296.85
2019-05-23T11:29:27.210Z,96298.02
2019-05-23T11:31:55.294Z,96296.33
2019-05-23T11:34:23.973Z,96295.45
2019-05-23T11:36:52.691Z,96295.45
2019-05-23T11:39:22.671Z,96287.42
2019-05-23T11:41:55.409Z,96289.20
2019-05-23T11:44:32.849Z,96288.72
2019-05-23T11:47:04.625Z,96287.70
2019-05-23T11:49:33.213Z,96286.51
2019-05-23T11:52:07.287Z,96279.02
2019-05-23T11:54:38.563Z,96282.28
2019-05-23T11:57:08.966Z,96268.45
2019-05-23T11:59:37.891Z,96273.84
2019-05-23T12:02:13.786Z,96277.86
2019-05-23T12:04:42.632Z,96268.75
2019-05-23T12:07:15.303Z,96269.23
2019-05-23T12:09:44.155Z,96267.05
2019-05-23T12:12:12.938Z,96267.20
2019-05-23T12:14:43.058Z,96262.66
2019-05-23T12:17:13.645Z,96251.20
2019-05-23T12:19:42.431Z,96250.31
2019-05-23T12:22:11.246Z,96256.30
2019-05-23T12:24:41.288Z,96245.97
2019-05-23T12:27:10.095Z,96238.13
2019-05-23T12:29:40.011Z,96236.42
2019-05-23T12:32:10.324Z,96230.83
2019-05-23T12:34:39.092Z,96239.08
2019-05-23T12:37:19.147Z,96231.73
2019-05-23T12:39:52.853Z,96221.92
2019-05-23T12:42:22.575Z,96219.91
2019-05-23T12:45:06.010Z,96229.33
2019-05-23T12:47:39.054Z,96218.36
2019-05-23T12:53:09.600Z,96222.27
2019-05-23T12:55:38.403Z,96211.98
2019-05-23T12:58:07.473Z,96212.85
2019-05-23T13:00:40.762Z,96208.34
2019-05-23T13:03:10.205Z,96211.44
2019-05-23T13:05:46.343Z,96206.16
2019-05-23T13:08:15.243Z,96206.48
2019-05-23T13:10:43.995Z,96203.55
2019-05-23T13:13:12.669Z,96197.21
2019-05-23T13:15:43.791Z,96198.71
2019-05-23T13:18:12.482Z,96198.18
2019-05-23T13:20:41.100Z,96196.16
2019-05-23T13:23:19.573Z,96196.41
2019-05-23T13:25:41.403Z,96192.23
2019-05-23T13:28:09.961Z,96189.59
2019-05-23T13:30:38.683Z,96196.16
2019-05-23T13:33:07.432Z,96196.48
2019-05-23T13:35:36.517Z,96191.40
2019-05-23T13:38:05.459Z,96187.84
2019-05-23T13:40:34.142Z,96196.80
2019-05-23T13:43:06.663Z,96192.86
2019-05-23T13:45:33.288Z,96190.30
2019-05-23T13:48:02.083Z,96183.52
2019-05-23T13:50:32.540Z,96185.02
2019-05-23T13:53:01.367Z,96187.14
2019-05-23T13:55:29.947Z,96182.02
2019-05-23T13:57:58.526Z,96187.53
2019-05-23T14:00:28.837Z,96183.67
2019-05-23T14:02:57.519Z,96175.66
2019-05-23T14:05:26.305Z,96170.71
2019-05-23T14:08:10.453Z,96171.88
2019-05-23T14:10:25.570Z,96176.88
2019-05-23T14:12:54.248Z,96172.22
2019-05-23T14:15:24.495Z,96174.97
2019-05-23T14:17:53.314Z,96167.69
2019-05-23T14:20:23.248Z,96172.95
2019-05-23T14:22:56.240Z,96173.72
2019-05-23T14:25:25.413Z,96181.47
2019-05-23T14:28:01.353Z,96168.45
2019-05-23T14:30:46.468Z,96168.12
2019-05-23T14:33:16.704Z,96168.68
2019-05-23T14:35:49.725Z,96168.66
2019-05-23T14:38:30.154Z,96160.04
2019-05-23T14:40:49.064Z,96153.77
2019-05-23T14:43:28.185Z,96147.08
2019-05-23T14:46:01.133Z,96153.04
2019-05-23T14:48:49.062Z,96150.70
2019-05-23T14:51:33.797Z,96141.00
2019-05-23T14:54:04.141Z,96133.83
2019-05-23T14:56:34.250Z,96137.55
2019-05-23T14:59:06.715Z,96133.01
2019-05-23T15:01:39.366Z,96138.65
2019-05-23T15:04:08.039Z,96144.16
2019-05-23T15:06:57.908Z,96139.63
2019-05-23T15:09:31.117Z,96139.52
2019-05-23T15:11:59.721Z,96141.64
2019-05-23T15:14:28.363Z,96130.63
2019-05-23T15:16:57.031Z,96135.77
2019-05-23T15:19:40.079Z,96130.54
2019-05-23T15:21:56.147Z,96130.77
2019-05-23T15:24:25.027Z,96135.38
2019-05-23T15:26:53.656Z,96124.73
2019-05-23T15:29:22.247Z,96130.63
2019-05-23T15:32:01.871Z,96133.30
2019-05-23T15:34:21.155Z,96125.61
2019-05-23T15:36:49.706Z,96129.17
2019-05-23T15:39:20.082Z,96126.27
2019-05-23T15:41:48.792Z,96123.67
2019-05-23T15:44:27.229Z,96122.28
2019-05-23T15:46:47.654Z,96123.56
2019-05-23T15:49:16.712Z,96124.26
2019-05-23T15:51:53.701Z,96124.73
2019-05-23T15:54:22.262Z,96124.98
2019-05-23T15:56:52.469Z,96124.05
2019-05-23T15:59:22.612Z,96118.87
2019-05-23T16:02:01.635Z,96122.48
2019-05-23T16:04:30.163Z,96122.73
2019-05-23T16:06:58.899Z,96116.97
2019-05-23T16:09:30.746Z,96119.83
2019-05-23T16:11:58.317Z,96120.86
2019-05-23T16:14:27.596Z,96114.03
2019-05-23T16:16:57.357Z,96112.97
2019-05-23T16:19:26.111Z,96104.80
2019-05-23T16:21:54.814Z,96107.39
2019-05-23T16:24:23.771Z,96110.16
2019-05-23T16:26:52.576Z,96098.45
2019-05-23T16:29:21.866Z,96098.14
2019-05-23T16:31:50.601Z,96093.80
2019-05-23T16:34:19.193Z,96092.28
2019-05-23T16:36:47.745Z,96094.45
2019-05-23T16:39:16.799Z,96095.54
2019-05-23T16:41:45.460Z,96092.17
2019-05-23T16:44:14.225Z,96087.94
2019-05-23T16:46:42.945Z,96096.51
2019-05-23T16:49:11.466Z,96095.14
2019-05-23T16:51:40.085Z,96099.59
2019-05-23T16:54:08.824Z,96099.36
2019-05-23T16:56:41.572Z,96091.72
2019-05-23T16:59:11.845Z,96096.95
2019-05-23T17:01:56.052Z,96096.17
2019-05-23T17:04:20.811Z,96101.10
2019-05-23T17:07:07.526Z,96102.61
2019-05-23T17:10:05.714Z,96102.07
2019-05-23T17:12:34.847Z,96100.31
2019-05-23T17:15:17.021Z,96094.98
2019-05-23T17:18:02.958Z,96094.77
2019-05-23T17:20:33.323Z,96099.03
2019-05-23T17:23:09.022Z,96099.03
2019-05-23T17:25:39.252Z,96097.63
2019-05-23T17:28:09.876Z,96094.67
2019-05-23T17:30:42.818Z,96109.23
2019-05-23T17:33:11.725Z,96099.75
2019-05-23T17:35:40.522Z,96093.72
2019-05-23T17:38:11.051Z,96097.73
2019-05-23T17:40:40.433Z,96093.17
2019-05-23T17:43:09.223Z,96095.86
2019-05-23T17:45:38.095Z,96094.19
2019-05-23T17:48:14.152Z,96100.40
2019-05-23T17:50:45.464Z,96097.40
2019-05-23T17:53:15.863Z,96099.47
2019-05-23T17:55:44.629Z,96103.40
2019-05-23T17:58:13.430Z,96092.39
2019-05-23T18:00:43.646Z,96112.91
2019-05-23T18:03:12.350Z,96109.75
2019-05-23T18:05:40.962Z,96114.48
2019-05-23T18:08:10.422Z,96121.95
2019-05-23T18:10:45.040Z,96114.97
2019-05-23T18:13:09.617Z,96126.17
2019-05-23T18:15:38.306Z,96121.56
2019-05-23T18:18:07.597Z,96121.89
2019-05-23T18:20:37.818Z,96127.38
2019-05-23T18:23:06.764Z,96132.36
2019-05-23T18:25:35.557Z,96131.91
2019-05-23T18:28:04.594Z,96138.77
2019-05-23T18:30:50.186Z,96126.56
2019-05-23T18:33:19.000Z,96143.74
2019-05-23T18:35:49.137Z,96145.98
2019-05-23T18:38:18.367Z,96141.40
2019-05-23T18:41:01.628Z,96148.36
2019-05-23T18:43:17.866Z,96145.17
2019-05-23T18:45:47.810Z,96151.26
2019-05-23T18:48:16.481Z,96155.92
2019-05-23T18:50:45.428Z,96161.95
2019-05-23T18:53:13.946Z,96167.71
2019-05-23T18:55:42.534Z,96173.45
2019-05-23T18:58:11.054Z,96171.83
2019-05-23T19:00:55.721Z,96172.08
2019-05-23T19:03:24.521Z,96180.30
2019-05-23T19:05:53.375Z,96177.05
2019-05-23T19:08:22.754Z,96175.94
2019-05-23T19:10:51.405Z,96175.41
2019-05-23T19:13:19.938Z,96180.59
2019-05-23T19:15:48.588Z,96179.24
2019-05-23T19:18:17.242Z,96188.78
2019-05-23T19:20:45.954Z,96188.78
2019-05-23T19:23:14.692Z,96193.67
2019-05-23T19:25:45.745Z,96195.01
2019-05-23T19:28:14.711Z,96196.09
2019-05-23T19:30:44.309Z,96202.35
2019-05-23T19:33:13.088Z,96212.71
2019-05-23T19:35:41.821Z,96207.77
2019-05-23T19:38:10.598Z,96210.17
2019-05-23T19:40:39.489Z,96210.69
2019-05-23T19:43:08.495Z,96215.63
2019-05-23T19:45:37.298Z,96205.24
2019-05-23T19:48:05.996Z,96212.59
2019-05-23T19:50:35.719Z,96216.91
2019-05-23T19:53:04.564Z,96215.24
2019-05-23T19:55:33.521Z,96219.84
2019-05-23T19:58:02.345Z,96227.47
2019-05-23T20:00:31.946Z,96224.75
2019-05-23T20:03:03.916Z,96219.63
2019-05-23T20:05:35.870Z,96223.45
2019-05-23T20:08:05.030Z,96218.78
2019-05-23T20:10:34.470Z,96218.50
2019-05-23T20:13:03.052Z,96217.12
2019-05-23T20:15:32.158Z,96213.33
2019-05-23T20:18:00.798Z,96223.90
2019-05-23T20:20:29.881Z,96227.43
2019-05-23T20:22:58.653Z,96222.22
2019-05-23T20:25:27.991Z,96220.05
2019-05-23T20:27:56.583Z,96220.05
2019-05-23T20:30:46.216Z,96221.41
2019-05-23T20:33:15.254Z,96220.54
2019-05-23T20:35:43.980Z,96226.52
2019-05-23T20:38:12.457Z,96222.09
2019-05-23T20:40:41.126Z,96224.00
2019-05-23T20:43:09.685Z,96217.98
2019-05-23T20:45:38.513Z,96213.91
2019-05-23T20:48:08.815Z,96222.30
2019-05-23T20:50:37.589Z,96213.31
2019-05-23T20:53:06.345Z,96210.89
2019-05-23T20:55:35.232Z,96215.30
2019-05-23T20:58:04.576Z,96214.78
2019-05-23T21:00:34.881Z,96215.06
2019-05-23T21:03:04.114Z,96216.70
2019-05-23T21:05:32.861Z,96220.78
2019-05-23T21:08:01.363Z,96218.30
2019-05-23T21:10:45.170Z,96221.23
2019-05-23T21:13:13.886Z,96220.42
2019-05-23T21:15:42.509Z,96227.45
2019-05-23T21:18:11.381Z,96231.46
2019-05-23T21:20:40.027Z,96231.95
2019-05-23T21:23:08.714Z,96229.77
2019-05-23T21:25:39.046Z,96238.98
2019-05-23T21:28:07.739Z,96234.08
2019-05-23T21:30:36.331Z,96230.00
2019-05-23T21:33:05.511Z,96238.16
2019-05-23T21:35:34.183Z,96236.46
2019-05-23T21:38:02.903Z,96233.12
2019-05-23T21:40:36.913Z,96233.09
2019-05-23T21:43:05.675Z,96237.14
2019-05-23T21:45:34.634Z,96234.89
2019-05-23T21:48:03.350Z,96234.07
2019-05-23T21:50:32.151Z,96241.34
2019-05-23T21:53:00.663Z,96230.78
2019-05-23T21:55:39.954Z,96231.00
2019-05-23T21:58:10.433Z,96229.87
2019-05-23T22:01:07.012Z,96225.22
2019-05-23T22:03:53.155Z,96224.69
2019-05-23T22:06:31.225Z,96223.30
2019-05-23T22:09:00.498Z,96222.97
2019-05-23T22:11:29.363Z,96225.41
2019-05-23T22:13:58.088Z,96222.88
2019-05-23T22:16:27.019Z,96220.41
2019-05-23T22:18:55.652Z,96216.80
2019-05-23T22:21:24.406Z,96213.54
2019-05-23T22:23:53.068Z,96213.54
2019-05-23T22:26:21.728Z,96213.25
2019-05-23T22:28:50.209Z,96206.43
2019-05-23T22:31:19.059Z,96207.75
2019-05-23T22:34:05.029Z,96205.83
2019-05-23T22:36:33.645Z,96207.22
2019-05-23T22:39:02.486Z,96199.89
2019-05-23T22:41:31.065Z,96204.25
2019-05-23T22:43:59.587Z,96203.97
2019-05-23T22:46:29.055Z,96205.03
2019-05-23T22:48:57.618Z,96196.06
2019-05-23T22:51:26.179Z,96194.39
2019-05-23T22:53:54.775Z,96192.78
2019-05-23T22:56:23.309Z,96200.92
2019-05-23T22:58:51.909Z,96202.28
2019-05-23T23:01:22.053Z,96193.53
2019-05-23T23:03:50.560Z,96192.70
2019-05-23T23:06:19.698Z,96195.78
2019-05-23T23:08:48.476Z,96190.39
2019-05-23T23:11:17.053Z,96191.99
2019-05-23T23:13:45.665Z,96192.78
2019-05-23T23:16:14.345Z,96187.59
2019-05-23T23:18:42.939Z,96185.92
2019-05-23T23:21:11.610Z,96179.34
2019-05-23T23:23:40.094Z,96182.23
2019-05-23T23:26:08.761Z,96178.12
2019-05-23T23:28:37.623Z,96172.65
2019-05-23T23:31:06.211Z,96175.61
2019-05-23T23:33:34.720Z,96173.93
2019-05-23T23:36:03.262Z,96175.82
2019-05-23T23:38:31.817Z,96174.75
2019-05-23T23:41:00.388Z,96175.89
2019-05-23T23:43:28.965Z,96180.96
2019-05-23T23:46:15.594Z,96181.74
2019-05-23T23:49:02.009Z,96181.73
2019-05-23T23:51:48.112Z,96184.16
2019-05-23T23:54:34.366Z,96180.38
2019-05-23T23:57:20.417Z,96183.63
2019-05-23T23:59:48.187Z,96188.97
